Time;durP1;ratioP1;P1;durP2;ratioP2;P2;SDS_P1;SDS_P2;PMS_P1;PMS_P2;Temp;Humidity;BMP_temperature;BMP_pressure;BME280_temperature;BME280_humidity;BME280_pressure;Samples;Min_cycle;Max_cycle;Signal;HPM_P1;HPM_P2
2022/07/28 00:02:06;;;;;;;0.70;0.70;;;;;;;19.08;100.00;99543.97;1694886;83;21308;-53
2022/07/28 00:04:32;;;;;;;2.12;0.80;;;;;;;19.03;100.00;99551.70;1700946;83;21031;-52
2022/07/28 00:07:01;;;;;;;1.62;0.80;;;;;;;19.02;100.00;99551.33;1696554;83;21406;-54
2022/07/28 00:09:27;;;;;;;1.67;0.80;;;;;;;19.02;100.00;99547.23;1699351;83;21065;-52
2022/07/28 00:11:54;;;;;;;1.15;0.90;;;;;;;19.01;100.00;99538.19;1696354;83;21156;-52
2022/07/28 00:14:21;;;;;;;0.80;0.80;;;;;;;19.02;100.00;99547.23;1702887;83;21255;-53
2022/07/28 00:16:48;;;;;;;3.37;0.80;;;;;;;18.99;100.00;99546.13;1700156;83;21653;-53
2022/07/28 00:19:16;;;;;;;0.93;0.75;;;;;;;18.96;100.00;99550.00;1697735;83;21114;-53
2022/07/28 00:21:44;;;;;;;2.70;1.00;;;;;;;18.95;100.00;99555.59;1693958;83;21141;-52
2022/07/28 00:24:12;;;;;;;0.90;0.80;;;;;;;18.95;100.00;99560.55;1697066;83;21145;-52
2022/07/28 00:26:39;;;;;;;1.20;0.90;;;;;;;18.97;100.00;99561.78;1696725;83;21233;-52
2022/07/28 00:29:07;;;;;;;1.00;0.90;;;;;;;18.97;100.00;99561.25;1697120;83;21029;-52
2022/07/28 00:31:33;;;;;;;0.93;0.80;;;;;;;18.96;100.00;99560.05;1700882;83;20935;-54
2022/07/28 00:34:00;;;;;;;1.10;0.70;;;;;;;18.96;100.00;99558.68;1697189;83;20934;-54
2022/07/28 00:36:26;;;;;;;1.77;1.42;;;;;;;18.96;100.00;99568.23;1695258;83;21014;-53
2022/07/28 00:38:52;;;;;;;0.80;0.80;;;;;;;18.95;100.00;99568.72;1698530;83;21496;-52
2022/07/28 00:41:19;;;;;;;1.15;0.90;;;;;;;18.95;100.00;99566.49;1695372;83;21382;-52
2022/07/28 00:43:47;;;;;;;1.50;0.78;;;;;;;18.92;100.00;99564.02;1698484;83;20997;-51
2022/07/28 00:46:16;;;;;;;0.80;0.70;;;;;;;18.90;100.00;99561.41;1701002;83;20983;-54
2022/07/28 00:48:50;;;;;;;1.42;0.80;;;;;;;18.89;100.00;99555.09;1700047;82;21017;-52
2022/07/28 00:51:19;;;;;;;0.90;0.80;;;;;;;18.87;100.00;99555.75;1701588;83;21539;-52
2022/07/28 00:53:46;;;;;;;1.27;0.70;;;;;;;18.84;100.00;99557.86;1669412;83;20954;-52
2022/07/28 00:56:12;;;;;;;1.12;0.80;;;;;;;18.81;100.00;99553.52;1697474;83;21398;-52
2022/07/28 00:58:39;;;;;;;0.78;0.78;;;;;;;18.78;100.00;99557.89;1698202;83;21108;-52
2022/07/28 01:01:08;;;;;;;0.70;0.70;;;;;;;18.77;100.00;99569.80;1702274;83;21165;-53
2022/07/28 01:03:39;;;;;;;1.05;0.80;;;;;;;18.76;100.00;99569.42;1702718;83;21773;-54
2022/07/28 01:06:40;;;;;;;1.02;0.90;;;;;;;18.75;100.00;99564.95;1695117;83;21073;-52
2022/07/28 01:09:57;;;;;;;1.40;0.75;;;;;;;18.75;100.00;99561.36;1698089;83;21129;-52
2022/07/28 01:12:52;;;;;;;1.00;0.90;;;;;;;18.72;100.00;99562.48;1695511;83;21097;-54
2022/07/28 01:15:35;;;;;;;0.70;0.70;;;;;;;18.67;100.00;99566.11;1701169;83;21486;-53
2022/07/28 01:18:20;;;;;;;0.80;0.70;;;;;;;18.64;100.00;99568.21;1696155;83;21607;-53
2022/07/28 01:21:06;;;;;;;0.98;0.82;;;;;;;18.60;100.00;99564.90;1696907;83;21073;-53
2022/07/28 01:23:58;;;;;;;0.80;0.80;;;;;;;18.59;100.00;99568.61;1697060;83;21306;-53
2022/07/28 01:26:48;;;;;;;1.50;1.40;;;;;;;18.58;100.00;99564.65;1700581;83;21142;-54
2022/07/28 01:30:07;;;;;;;1.27;0.90;;;;;;;18.57;100.00;99578.77;1696928;83;21507;-53
2022/07/28 01:32:43;;;;;;;2.20;1.00;;;;;;;18.56;100.00;99576.14;1671622;83;21444;-53
2022/07/28 01:35:22;;;;;;;0.72;0.72;;;;;;;18.53;100.00;99575.42;1695442;83;21133;-52
2022/07/28 01:37:52;;;;;;;2.45;0.80;;;;;;;18.52;100.00;99570.09;1695532;83;21089;-53
2022/07/28 01:40:24;;;;;;;2.20;0.75;;;;;;;18.48;100.00;99569.97;1698447;82;21085;-53
2022/07/28 01:42:56;;;;;;;0.70;0.70;;;;;;;18.45;100.00;99571.61;1698232;83;21548;-53
2022/07/28 01:45:22;;;;;;;0.70;0.70;;;;;;;18.43;100.00;99565.41;1697036;83;21384;-53
2022/07/28 01:47:52;;;;;;;0.80;0.70;;;;;;;18.42;100.00;99565.91;1696971;83;21061;-53
2022/07/28 01:50:20;;;;;;;0.78;0.78;;;;;;;18.42;100.00;99573.22;1697578;83;21050;-54
2022/07/28 01:52:47;;;;;;;0.93;0.82;;;;;;;18.42;100.00;99574.58;1696559;83;21066;-53
2022/07/28 01:55:16;;;;;;;2.25;0.70;;;;;;;18.42;100.00;99571.85;1696835;83;21136;-53
2022/07/28 01:57:43;;;;;;;1.17;0.70;;;;;;;18.40;100.00;99571.11;1695280;83;21191;-52
2022/07/28 02:00:12;;;;;;;2.45;0.70;;;;;;;18.39;100.00;99577.55;1700987;83;21082;-52
2022/07/28 02:02:45;;;;;;;0.80;0.80;;;;;;;18.37;100.00;99582.28;1698942;83;21456;-54
2022/07/28 02:05:15;;;;;;;2.67;0.80;;;;;;;18.34;100.00;99577.94;1697204;83;21077;-54
2022/07/28 02:07:42;;;;;;;0.65;0.65;;;;;;;18.34;100.00;99573.86;1698778;83;21495;-54
2022/07/28 02:10:11;;;;;;;1.10;0.70;;;;;;;18.34;100.00;99571.12;1696586;83;21141;-52
2022/07/28 02:12:37;;;;;;;2.22;0.78;;;;;;;18.34;100.00;99575.71;1698537;83;21118;-53
2022/07/28 02:15:10;;;;;;;1.52;0.82;;;;;;;18.32;100.00;99573.60;1695954;83;21077;-52
2022/07/28 02:17:41;;;;;;;0.80;0.70;;;;;;;18.30;100.00;99581.03;1701684;83;21041;-53
2022/07/28 02:20:09;;;;;;;0.88;0.60;;;;;;;18.27;100.00;99578.09;1702005;82;21007;-52
2022/07/28 02:22:38;;;;;;;0.75;0.75;;;;;;;18.28;100.00;99582.55;1697031;83;21168;-52
2022/07/28 02:25:06;;;;;;;1.37;0.65;;;;;;;18.28;100.00;99589.85;1694667;83;21118;-54
2022/07/28 02:27:40;;;;;;;1.40;0.80;;;;;;;18.26;100.00;99594.06;1698605;83;21137;-52
2022/07/28 02:30:37;;;;;;;1.37;1.15;;;;;;;18.25;100.00;99588.73;1697311;83;21142;-53
2022/07/28 02:33:17;;;;;;;1.42;0.70;;;;;;;18.24;100.00;99599.25;1694579;83;21074;-52
2022/07/28 02:35:49;;;;;;;1.80;0.70;;;;;;;18.22;100.00;99600.73;1695772;83;21782;-51
2022/07/28 02:38:30;;;;;;;0.68;0.68;;;;;;;18.26;100.00;99597.28;1692863;83;21842;-53
2022/07/28 02:41:04;;;;;;;1.22;0.70;;;;;;;18.29;100.00;99597.87;1694130;83;21054;-52
2022/07/28 02:43:31;;;;;;;0.82;0.70;;;;;;;18.28;100.00;99600.25;1699727;83;21068;-52
2022/07/28 02:46:00;;;;;;;1.35;0.70;;;;;;;18.28;100.00;99611.16;1697883;83;21557;-52
2022/07/28 02:48:30;;;;;;;1.42;0.70;;;;;;;18.28;100.00;99600.75;1695736;83;21096;-52
2022/07/28 02:50:57;;;;;;;1.60;0.70;;;;;;;18.30;100.00;99608.28;1695405;83;21137;-53
2022/07/28 02:53:23;;;;;;;0.70;0.70;;;;;;;18.29;100.00;99614.75;1698273;83;21144;-52
2022/07/28 02:55:49;;;;;;;0.62;0.62;;;;;;;18.29;100.00;99619.67;1699340;83;21010;-52
2022/07/28 02:58:23;;;;;;;4.92;0.70;;;;;;;18.32;100.00;99621.28;1696555;83;21760;-51
2022/07/28 03:00:50;;;;;;;1.27;0.70;;;;;;;18.31;100.00;99620.91;1698297;83;22766;-53
2022/07/28 03:03:17;;;;;;;1.02;0.60;;;;;;;18.28;100.00;99611.65;1697843;83;21034;-52
2022/07/28 03:05:44;;;;;;;1.32;0.70;;;;;;;18.27;100.00;99613.50;1699144;83;20923;-52
2022/07/28 03:08:11;;;;;;;0.85;0.70;;;;;;;18.25;100.00;99610.03;1699754;83;20883;-54
2022/07/28 03:10:38;;;;;;;1.10;0.65;;;;;;;18.23;100.00;99602.97;1698576;83;20951;-54
2022/07/28 03:13:08;;;;;;;0.70;0.60;;;;;;;18.22;100.00;99598.02;1697984;83;21671;-53
2022/07/28 03:15:38;;;;;;;0.70;0.70;;;;;;;18.20;100.00;99596.43;1694845;83;20951;-55
2022/07/28 03:18:05;;;;;;;1.17;0.68;;;;;;;18.19;100.00;99592.84;1699253;83;21050;-52
2022/07/28 03:20:33;;;;;;;0.60;0.60;;;;;;;18.14;100.00;99590.47;1698616;83;21374;-53
2022/07/28 03:22:59;;;;;;;0.70;0.60;;;;;;;18.14;100.00;99604.58;1695761;83;21050;-52
2022/07/28 03:25:40;;;;;;;1.30;0.70;;;;;;;18.13;100.00;99614.61;1699692;83;21125;-51
2022/07/28 03:28:07;;;;;;;1.00;0.70;;;;;;;18.13;100.00;99613.25;1698640;83;20891;-54
2022/07/28 03:30:40;;;;;;;1.57;0.60;;;;;;;18.12;100.00;99614.73;1695002;83;21038;-52
2022/07/28 03:33:07;;;;;;;1.32;1.22;;;;;;;18.10;100.00;99610.80;1676787;83;20963;-51
2022/07/28 03:35:34;;;;;;;0.85;0.72;;;;;;;18.11;100.00;99611.17;1700998;83;21093;-51
2022/07/28 03:38:16;;;;;;;0.72;0.72;;;;;;;18.10;100.00;99604.48;1696520;83;21238;-52
2022/07/28 03:40:43;;;;;;;1.40;0.70;;;;;;;18.08;100.00;99612.77;1687250;82;21576;-53
2022/07/28 03:43:09;;;;;;;0.90;0.60;;;;;;;18.06;100.00;99617.97;1691562;82;21099;-53
2022/07/28 03:45:36;;;;;;;1.20;0.70;;;;;;;18.06;100.00;99622.05;1687368;82;21003;-54
2022/07/28 03:48:03;;;;;;;0.90;0.70;;;;;;;18.05;100.00;99623.91;1668616;82;21129;-53
2022/07/28 03:50:32;;;;;;;2.45;0.70;;;;;;;18.05;100.00;99621.18;1692014;82;21130;-53
2022/07/28 03:52:59;;;;;;;0.62;0.62;;;;;;;18.05;100.00;99617.59;1684531;82;21090;-53
2022/07/28 03:55:25;;;;;;;1.17;0.57;;;;;;;18.05;100.00;99623.03;1683018;82;21196;-51
2022/07/28 03:57:52;;;;;;;1.90;0.70;;;;;;;18.04;100.00;99622.16;1686303;82;21384;-52
2022/07/28 04:00:19;;;;;;;0.50;0.50;;;;;;;18.04;100.00;99624.89;1690121;82;21082;-53
2022/07/28 04:02:46;;;;;;;1.15;0.70;;;;;;;18.05;100.00;99630.71;1687174;82;21150;-53
2022/07/28 04:05:14;;;;;;;0.80;0.70;;;;;;;18.07;100.00;99632.83;1686748;82;21574;-53
2022/07/28 04:07:42;;;;;;;0.62;0.60;;;;;;;18.07;100.00;99632.83;1689569;82;21121;-53
2022/07/28 04:10:11;;;;;;;0.78;0.70;;;;;;;18.09;100.00;99634.94;1686986;82;21737;-52
2022/07/28 04:12:56;;;;;;;2.45;0.70;;;;;;;18.12;100.00;99639.25;1687579;82;20936;-54
2022/07/28 04:15:23;;;;;;;1.52;0.60;;;;;;;18.16;100.00;99639.38;1689907;82;21160;-52
2022/07/28 04:17:51;;;;;;;3.80;0.57;;;;;;;18.15;100.00;99643.09;1688112;82;21332;-52
2022/07/28 04:20:18;;;;;;;0.78;0.78;;;;;;;18.14;100.00;99644.08;1690004;82;21567;-54
2022/07/28 04:22:45;;;;;;;1.57;0.65;;;;;;;18.15;100.00;99649.41;1687794;82;20936;-52
2022/07/28 04:25:12;;;;;;;1.07;0.70;;;;;;;18.16;100.00;99646.20;1684318;82;21098;-51
2022/07/28 04:27:41;;;;;;;0.78;0.68;;;;;;;18.19;100.00;99639.64;1690545;82;21043;-52
2022/07/28 04:30:15;;;;;;;1.00;0.53;;;;;;;18.22;100.00;99640.23;1685651;83;21114;-53
2022/07/28 04:32:43;;;;;;;1.25;0.60;;;;;;;18.24;100.00;99640.98;1685882;82;21082;-54
2022/07/28 04:35:10;;;;;;;0.55;0.55;;;;;;;18.28;100.00;99634.81;1689519;82;21129;-53
2022/07/28 04:37:37;;;;;;;2.72;0.62;;;;;;;18.35;100.00;99645.57;1685410;82;21554;-54
2022/07/28 04:40:05;;;;;;;0.50;0.50;;;;;;;18.40;100.00;99652.86;1687980;82;21136;-54
2022/07/28 04:42:35;;;;;;;0.50;0.50;;;;;;;18.47;100.00;99652.23;1702592;81;21383;-54
2022/07/28 04:45:03;;;;;;;1.15;0.50;;;;;;;18.54;100.00;99652.61;1694652;83;21025;-52
2022/07/28 04:47:29;;;;;;;1.02;0.50;;;;;;;18.59;100.00;99657.20;1704581;81;21029;-53
2022/07/28 04:49:56;;;;;;;0.50;0.50;;;;;;;18.65;100.00;99654.45;1705662;81;21140;-54
2022/07/28 04:52:22;;;;;;;0.47;0.40;;;;;;;18.71;100.00;99659.42;1686651;82;21844;-54
2022/07/28 04:54:49;;;;;;;1.05;0.50;;;;;;;18.77;100.00;99655.69;1699864;81;21103;-53
2022/07/28 04:57:17;;;;;;;0.85;0.50;;;;;;;18.86;100.00;99655.41;1704738;82;21111;-52
2022/07/28 04:59:44;;;;;;;1.37;0.50;;;;;;;18.93;100.00;99653.89;1705052;82;21495;-53
2022/07/28 05:02:11;;;;;;;1.02;0.30;;;;;;;18.97;100.00;99656.72;1700685;82;21110;-52
2022/07/28 05:04:39;;;;;;;0.80;0.50;;;;;;;19.00;100.00;99659.20;1701965;82;21056;-52
2022/07/28 05:07:06;;;;;;;0.88;0.37;;;;;;;19.01;100.00;99664.16;1703884;82;21045;-52
2022/07/28 05:09:34;;;;;;;0.40;0.30;;;;;;;19.02;100.00;99656.34;1712332;82;21397;-52
2022/07/28 05:12:00;;;;;;;1.82;0.40;;;;;;;19.05;100.00;99658.83;1705166;82;21093;-52
2022/07/28 05:14:26;;;;;;;0.40;0.30;;;;;;;19.09;100.00;99663.88;1697298;82;21126;-53
2022/07/28 05:16:54;;;;;;;0.47;0.40;;;;;;;19.12;100.00;99665.48;1697392;82;21950;-53
2022/07/28 05:19:20;;;;;;;0.40;0.28;;;;;;;19.15;100.00;99666.08;1694954;82;21062;-52
2022/07/28 05:21:47;;;;;;;1.62;0.30;;;;;;;19.18;100.00;99661.73;1695841;82;21109;-54
2022/07/28 05:24:13;;;;;;;2.67;0.75;;;;;;;19.19;100.00;99663.47;1698472;82;21081;-52
2022/07/28 05:26:40;;;;;;;0.65;0.30;;;;;;;19.19;100.00;99675.75;1702233;82;21443;-53
2022/07/28 05:29:06;;;;;;;0.62;0.30;;;;;;;19.20;100.00;99667.94;1705102;82;22296;-52
2022/07/28 05:31:33;;;;;;;1.87;0.23;;;;;;;19.25;100.00;99672.48;1698568;82;21078;-53
2022/07/28 05:33:59;;;;;;;1.55;0.40;;;;;;;19.30;100.00;99673.48;1703621;82;21085;-52
2022/07/28 05:36:27;;;;;;;0.70;0.30;;;;;;;19.36;100.00;99684.36;1703892;82;21098;-53
2022/07/28 05:38:54;;;;;;;0.53;0.35;;;;;;;19.41;100.00;99684.81;1701549;82;21125;-52
2022/07/28 05:41:20;;;;;;;2.30;0.30;;;;;;;19.47;100.00;99692.50;1706083;82;21257;-52
2022/07/28 05:43:48;;;;;;;0.40;0.30;;;;;;;19.51;100.00;99689.89;1685706;82;21046;-54
2022/07/28 05:46:14;;;;;;;0.60;0.30;;;;;;;19.56;100.00;99689.85;1689650;82;21591;-53
2022/07/28 05:48:41;;;;;;;1.12;0.30;;;;;;;19.62;100.00;99698.91;1688316;82;21081;-53
2022/07/28 05:51:07;;;;;;;0.70;0.30;;;;;;;19.65;100.00;99696.38;1688177;82;21092;-54
2022/07/28 05:53:33;;;;;;;2.27;0.35;;;;;;;19.67;100.00;99698.98;1689503;82;21253;-54
2022/07/28 05:56:00;;;;;;;1.45;0.30;;;;;;;19.67;100.00;99703.08;1693661;82;21031;-53
2022/07/28 05:58:27;;;;;;;0.65;0.30;;;;;;;19.68;100.00;99704.81;1695377;82;21745;-51
2022/07/28 06:00:53;;;;;;;0.75;0.30;;;;;;;19.70;100.00;99712.39;1692773;82;21097;-53
2022/07/28 06:03:20;;;;;;;0.57;0.30;;;;;;;19.72;100.00;99709.90;1640323;82;21160;-52
2022/07/28 06:05:47;;;;;;;1.22;0.30;;;;;;;19.75;100.00;99716.44;1694238;82;22392;-52
2022/07/28 06:08:13;;;;;;;0.50;0.30;;;;;;;19.78;100.00;99713.95;1700672;82;21102;-53
2022/07/28 06:10:58;;;;;;;0.75;0.40;;;;;;;19.80;100.00;99714.70;1674334;84;21044;-51
2022/07/28 06:13:25;;;;;;;0.60;0.40;;;;;;;19.83;100.00;99722.10;1684494;82;21440;-52
2022/07/28 06:15:51;;;;;;;0.55;0.30;;;;;;;19.88;100.00;99725.31;1690497;82;21105;-52
2022/07/28 06:18:19;;;;;;;0.60;0.30;;;;;;;19.94;100.00;99723.91;1693658;82;21179;-54
2022/07/28 06:20:46;;;;;;;0.60;0.30;;;;;;;20.02;100.00;99722.23;1686964;82;21046;-52
2022/07/28 06:23:19;;;;;;;2.95;0.60;;;;;;;20.11;100.00;99723.80;1688367;82;20983;-53
2022/07/28 06:25:45;;;;;;;0.80;0.30;;;;;;;20.18;100.00;99725.84;1685552;82;21403;-51
2022/07/28 06:28:12;;;;;;;0.95;0.42;;;;;;;20.27;100.00;99720.94;1691417;82;21027;-52
2022/07/28 06:30:38;;;;;;;2.60;1.17;;;;;;;20.34;100.00;99724.88;1688702;82;21105;-53
2022/07/28 06:33:06;;;;;;;1.00;0.35;;;;;;;20.42;100.00;99728.80;1689079;82;20979;-54
2022/07/28 06:35:33;;;;;;;0.53;0.35;;;;;;;20.45;100.00;99727.17;1691661;82;21458;-53
2022/07/28 06:37:59;;;;;;;1.37;0.28;;;;;;;20.48;100.00;99725.54;1688163;82;21027;-53
2022/07/28 06:40:27;;;;;;;0.35;0.23;;;;;;;20.53;100.00;99727.34;1688025;82;20982;-54
2022/07/28 06:42:54;;;;;;;2.37;0.30;;;;;;;20.59;100.00;99726.78;1688010;82;21502;-54
2022/07/28 06:45:20;;;;;;;1.50;0.35;;;;;;;20.64;100.00;99725.89;1688521;82;21612;-53
2022/07/28 06:47:48;;;;;;;0.60;0.30;;;;;;;20.69;100.00;99720.86;1682301;82;21062;-53
2022/07/28 06:50:14;;;;;;;1.02;0.30;;;;;;;20.71;100.00;99724.33;1692385;82;21073;-54
2022/07/28 06:52:41;;;;;;;0.40;0.20;;;;;;;20.72;100.00;99728.80;1681838;82;21125;-54
2022/07/28 06:55:10;;;;;;;1.15;0.30;;;;;;;20.75;100.00;99728.53;1682854;82;21823;-54
2022/07/28 06:57:37;;;;;;;2.37;0.33;;;;;;;20.78;100.00;99731.83;1689071;82;21507;-53
2022/07/28 07:00:07;;;;;;;0.80;0.33;;;;;;;20.83;100.00;99723.23;1689150;82;21385;-54
2022/07/28 07:02:39;;;;;;;0.50;0.20;;;;;;;20.90;100.00;99725.76;1683238;82;21116;-55
2022/07/28 07:05:07;;;;;;;1.65;0.20;;;;;;;20.96;100.00;99729.80;1687240;82;21146;-54
2022/07/28 07:07:35;;;;;;;0.82;0.25;;;;;;;21.02;100.00;99730.09;1684466;82;21619;-54
2022/07/28 07:10:04;;;;;;;1.20;0.23;;;;;;;21.07;100.00;99722.84;1684830;82;21058;-54
2022/07/28 07:12:33;;;;;;;1.65;0.30;;;;;;;21.14;100.00;99728.97;1685667;82;21058;-54
2022/07/28 07:15:01;;;;;;;0.40;0.20;;;;;;;21.23;100.00;99732.77;1689327;82;21087;-53
2022/07/28 07:17:29;;;;;;;1.50;0.20;;;;;;;21.30;100.00;99731.69;1689811;82;22188;-55
2022/07/28 07:19:57;;;;;;;0.30;0.10;;;;;;;21.36;100.00;99732.48;1686815;82;21094;-55
2022/07/28 07:22:24;;;;;;;1.05;0.20;;;;;;;21.38;100.00;99732.70;1683482;82;21058;-55
2022/07/28 07:24:51;;;;;;;1.52;0.20;;;;;;;21.39;100.00;99735.81;1683555;82;21146;-55
2022/07/28 07:27:17;;;;;;;1.37;0.30;;;;;;;21.42;100.00;99736.91;1685284;82;21101;-55
2022/07/28 07:29:45;;;;;;;1.77;0.20;;;;;;;21.47;100.00;99744.67;1685707;82;21126;-56
2022/07/28 07:32:12;;;;;;;0.55;0.30;;;;;;;21.54;100.00;99738.98;1685662;82;21595;-56
2022/07/28 07:34:40;;;;;;;0.37;0.20;;;;;;;21.57;100.00;99737.33;1687635;82;21039;-55
2022/07/28 07:37:10;;;;;;;0.37;0.20;;;;;;;21.62;100.00;99740.48;1690749;82;21106;-55
2022/07/28 07:39:35;;;;;;;0.30;0.20;;;;;;;21.68;100.00;99741.80;1689957;82;21098;-53
2022/07/28 07:42:01;;;;;;;0.70;0.20;;;;;;;21.71;100.00;99738.25;1685231;82;21102;-54
2022/07/28 07:44:28;;;;;;;1.75;0.20;;;;;;;21.76;100.00;99740.58;1687411;82;21222;-54
2022/07/28 07:46:54;;;;;;;0.93;0.30;;;;;;;21.75;100.00;99744.32;1728264;80;21045;-54
2022/07/28 07:49:21;;;;;;;0.72;0.30;;;;;;;21.77;100.00;99741.80;1728299;80;21575;-53
2022/07/28 07:51:48;;;;;;;1.45;0.40;;;;;;;21.79;100.00;99739.77;1729114;80;21070;-54
2022/07/28 07:56:18;;;;;;;3.08;0.28;;;;;;;21.87;100.00;99741.27;1796459;77;22600;-54
2022/07/28 07:58:44;;;;;;;0.70;0.30;;;;;;;21.87;100.00;99749.48;1749835;79;21046;-54
2022/07/28 08:01:12;;;;;;;0.70;0.30;;;;;;;21.92;100.00;99738.61;1746374;80;22302;-54
2022/07/28 08:03:39;;;;;;;0.57;0.20;;;;;;;21.99;100.00;99742.02;1746438;80;21515;-56
2022/07/28 08:06:05;;;;;;;3.42;0.30;;;;;;;22.07;100.00;99748.13;1745368;80;22352;-55
2022/07/28 08:08:32;;;;;;;1.45;0.30;;;;;;;22.13;100.00;99742.92;1745868;80;21109;-55
2022/07/28 08:10:58;;;;;;;0.50;0.30;;;;;;;22.17;100.00;99743.50;1712812;81;21515;-55
2022/07/28 08:13:25;;;;;;;1.75;0.20;;;;;;;22.23;100.00;99750.62;1716912;81;21205;-54
2022/07/28 08:15:52;;;;;;;0.40;0.20;;;;;;;22.28;100.00;99752.94;1714893;81;21622;-55
2022/07/28 08:18:20;;;;;;;0.50;0.20;;;;;;;22.28;100.00;99757.05;1714275;81;21158;-53
2022/07/28 08:20:48;;;;;;;0.70;0.30;;;;;;;22.30;100.00;99753.62;1682702;84;21504;-53
2022/07/28 08:23:16;;;;;;;2.47;0.30;;;;;;;22.34;100.00;99748.72;1681458;83;21136;-55
2022/07/28 08:25:43;;;;;;;0.40;0.20;;;;;;;22.37;100.00;99752.02;1664925;81;21211;-53
2022/07/28 08:28:10;;;;;;;1.80;0.20;;;;;;;22.42;100.00;99750.21;1685943;83;22293;-54
2022/07/28 08:30:36;;;;;;;1.35;0.30;;;;;;;22.48;100.00;99751.84;1684126;83;21077;-55
2022/07/28 08:33:03;;;;;;;0.90;0.30;;;;;;;22.54;100.00;99747.13;1715078;81;21096;-55
2022/07/28 08:35:29;;;;;;;0.47;0.20;;;;;;;22.60;100.00;99755.28;1690550;83;21568;-54
2022/07/28 08:37:56;;;;;;;0.40;0.20;;;;;;;22.66;100.00;99756.04;1717539;81;22459;-53
2022/07/28 08:40:23;;;;;;;0.72;0.20;;;;;;;22.74;100.00;99766.25;1681181;83;21078;-56
2022/07/28 08:43:15;;;;;;;0.60;0.20;;;;;;;22.75;100.00;99766.14;1713342;81;21062;-56
2022/07/28 08:45:43;;;;;;;2.05;0.23;;;;;;;22.74;100.00;99764.88;1634299;82;22364;-53
2022/07/28 08:48:11;;;;;;;0.30;0.20;;;;;;;22.73;100.00;99757.16;1700010;82;21073;-53
2022/07/28 08:50:38;;;;;;;0.85;0.20;;;;;;;22.76;100.00;99751.92;1716135;82;23085;-54
2022/07/28 08:53:05;;;;;;;0.30;0.20;;;;;;;22.81;100.00;99752.31;1680145;83;21065;-54
2022/07/28 08:55:31;;;;;;;0.60;0.30;;;;;;;22.88;100.00;99758.41;1672446;84;21130;-54
2022/07/28 08:57:58;;;;;;;0.65;0.20;;;;;;;22.94;100.00;99752.34;1731940;80;21117;-54
2022/07/28 09:00:27;;;;;;;2.05;0.20;;;;;;;22.99;100.00;99754.61;1700737;83;20950;-54
2022/07/28 09:02:53;;;;;;;0.88;0.20;;;;;;;22.98;100.00;99757.86;1698112;82;21379;-53
2022/07/28 09:05:20;;;;;;;4.12;0.28;;;;;;;23.02;100.00;99759.80;1733205;80;21801;-53
2022/07/28 09:07:49;;;;;;;0.85;0.30;;;;;;;23.09;100.00;99762.80;1738780;80;20846;-55
2022/07/28 09:10:17;;;;;;;0.50;0.30;;;;;;;23.14;100.00;99755.81;1739434;80;20965;-54
2022/07/28 09:12:45;;;;;;;0.82;0.20;;;;;;;23.16;100.00;99757.91;1727501;80;20907;-55
2022/07/28 09:15:13;;;;;;;4.70;0.57;;;;;;;23.17;100.00;99764.27;1735116;81;20932;-54
2022/07/28 09:17:40;;;;;;;0.55;0.20;;;;;;;23.18;100.00;99766.86;1731533;80;20941;-54
2022/07/28 09:20:08;;;;;;;1.35;0.20;;;;;;;23.24;100.00;99759.37;1736851;80;20982;-54
2022/07/28 09:22:36;;;;;;;0.30;0.20;;;;;;;23.30;100.00;99762.89;1736462;80;20942;-53
2022/07/28 09:25:04;;;;;;;0.90;0.30;;;;;;;23.38;100.00;99772.59;1651434;83;21047;-53
2022/07/28 09:27:43;;;;;;;0.90;0.20;;;;;;;23.44;100.00;99768.86;1733000;81;21143;-54
2022/07/28 09:30:10;;;;;;;0.85;0.30;;;;;;;23.45;100.00;99756.34;1731454;81;21117;-53
2022/07/28 09:32:36;;;;;;;0.53;0.20;;;;;;;23.51;100.00;99772.23;1733456;80;21085;-55
2022/07/28 09:35:18;;;;;;;19.52;5.95;;;;;;;23.51;100.00;99765.88;1736334;80;20903;-54
2022/07/28 09:37:45;;;;;;;1.35;0.30;;;;;;;23.54;100.00;99766.44;1734031;80;20948;-55
2022/07/28 09:40:13;;;;;;;0.40;0.20;;;;;;;23.64;100.00;99766.37;1735202;81;21216;-54
2022/07/28 09:42:48;;;;;;;0.50;0.35;;;;;;;23.70;100.00;99778.09;1734354;80;20982;-53
2022/07/28 09:45:15;;;;;;;1.95;0.20;;;;;;;23.72;100.00;99771.94;1728911;80;21445;-55
2022/07/28 09:47:41;;;;;;;2.98;0.17;;;;;;;23.75;100.00;99775.22;1734484;80;21065;-55
2022/07/28 09:50:11;;;;;;;0.40;0.20;;;;;;;23.81;100.00;99772.37;1734867;80;20875;-54
2022/07/28 09:52:38;;;;;;;0.40;0.20;;;;;;;23.84;100.00;99767.91;1692023;81;21125;-55
2022/07/28 09:55:09;;;;;;;4.37;0.23;;;;;;;23.89;100.00;99764.70;1736170;80;21013;-54
2022/07/28 09:57:38;;;;;;;1.00;0.20;;;;;;;23.94;100.00;99774.20;1730779;80;21508;-54
2022/07/28 10:00:10;;;;;;;0.40;0.28;;;;;;;23.99;100.00;99773.19;1733062;80;21108;-54
2022/07/28 10:02:39;;;;;;;1.72;0.20;;;;;;;24.01;100.00;99772.53;1731946;81;21072;-54
2022/07/28 10:05:06;;;;;;;0.50;0.17;;;;;;;24.05;100.00;99780.83;1735883;80;21085;-54
2022/07/28 10:07:33;;;;;;;3.50;0.20;;;;;;;24.09;100.00;99773.11;1731112;80;21589;-55
2022/07/28 10:10:06;;;;;;;0.55;0.23;;;;;;;24.14;100.00;99773.00;1676037;82;21062;-55
2022/07/28 10:12:35;;;;;;;0.60;0.20;;;;;;;24.16;100.00;99769.23;1734263;80;20951;-55
2022/07/28 10:17:59;;;;;;;0.55;0.35;;;;;;;24.25;100.00;99767.77;1734884;80;21842;-54
2022/07/28 10:20:27;;;;;;;0.88;0.13;;;;;;;24.33;100.00;99769.73;1732297;80;21053;-53
2022/07/28 10:22:59;;;;;;;0.40;0.20;;;;;;;24.29;100.00;99782.07;1732882;80;22072;-54
2022/07/28 10:25:25;;;;;;;0.60;0.20;;;;;;;24.23;100.00;99778.09;1675127;84;21105;-53
2022/07/28 10:27:52;;;;;;;1.37;0.30;;;;;;;24.20;100.00;99774.23;1727127;81;21516;-54
2022/07/28 10:30:19;;;;;;;0.70;0.20;;;;;;;24.19;100.00;99767.00;1735640;80;22331;-56
2022/07/28 10:32:46;;;;;;;2.90;0.20;;;;;;;24.21;100.00;99761.38;1733079;80;22618;-55
2022/07/28 10:35:14;;;;;;;1.87;0.20;;;;;;;24.26;100.00;99768.12;1728853;81;21515;-54
2022/07/28 10:37:53;;;;;;;0.55;0.20;;;;;;;24.33;100.00;99766.98;1730480;80;20910;-55
2022/07/28 10:40:24;;;;;;;0.57;0.20;;;;;;;24.36;100.00;99779.02;1735413;81;21535;-56
2022/07/28 10:42:51;;;;;;;0.55;0.10;;;;;;;24.38;100.00;99774.23;1729021;80;21144;-53
2022/07/28 10:45:18;;;;;;;0.25;0.10;;;;;;;24.34;100.00;99765.42;1733987;80;21049;-54
2022/07/28 10:47:44;;;;;;;1.75;0.10;;;;;;;24.28;100.00;99777.08;1734697;80;21052;-55
2022/07/28 10:50:12;;;;;;;1.75;0.20;;;;;;;24.21;100.00;99771.01;1733937;80;21109;-54
2022/07/28 10:52:39;;;;;;;0.30;0.20;;;;;;;24.19;100.00;99764.25;1695794;83;21109;-53
2022/07/28 10:55:17;;;;;;;0.35;0.20;;;;;;;24.22;100.00;99757.10;1731552;80;21622;-54
2022/07/28 10:58:04;;;;;;;1.17;0.20;;;;;;;24.32;100.00;99764.75;1734997;80;21094;-56
2022/07/28 11:00:33;;;;;;;0.30;0.10;;;;;;;24.44;100.00;99762.57;1732032;80;21050;-54
2022/07/28 11:03:00;;;;;;;0.82;0.10;;;;;;;24.56;100.00;99764.03;1731930;80;21065;-55
2022/07/28 11:05:40;;;;;;;0.35;0.20;;;;;;;24.62;100.00;99773.52;1734529;80;21079;-54
2022/07/28 11:08:22;;;;;;;2.72;0.20;;;;;;;24.65;100.00;99775.44;1729606;82;21245;-54
2022/07/28 11:10:51;;;;;;;0.35;0.20;;;;;;;24.63;100.00;99776.11;1732386;80;21049;-54
2022/07/28 11:13:30;;;;;;;0.30;0.10;;;;;;;24.62;100.00;99764.75;1734153;80;21491;-56
2022/07/28 11:16:14;;;;;;;0.60;0.10;;;;;;;24.59;100.00;99765.06;1731782;80;21049;-54
2022/07/28 11:19:09;;;;;;;0.68;0.20;;;;;;;24.56;100.00;99761.80;1728256;80;26458;-55
2022/07/28 11:21:39;;;;;;;0.28;0.20;;;;;;;24.56;100.00;99762.66;1734828;81;20987;-54
2022/07/28 11:24:06;;;;;;;0.20;0.10;;;;;;;24.60;100.00;99756.30;1650289;84;21617;-54
2022/07/28 11:26:34;;;;;;;0.50;0.20;;;;;;;24.63;100.00;99763.73;1732117;80;21377;-53
2022/07/28 11:29:13;;;;;;;0.40;0.10;;;;;;;24.68;100.00;99759.95;1736421;81;21457;-55
2022/07/28 11:31:51;;;;;;;0.20;0.10;;;;;;;24.73;100.00;99743.83;1731777;80;21492;-53
2022/07/28 11:34:20;;;;;;;0.68;0.20;;;;;;;24.74;100.00;99746.94;1735479;81;21114;-55
2022/07/28 11:37:09;;;;;;;0.37;0.10;;;;;;;24.75;100.00;99751.39;1732771;80;21386;-54
2022/07/28 11:39:38;;;;;;;1.05;0.20;;;;;;;24.77;100.00;99749.34;1735556;80;21339;-53
2022/07/28 11:42:29;;;;;;;0.95;0.10;;;;;;;24.81;100.00;99739.74;1735606;80;21207;-54